Marthasville, MO

11:07 PM CDT on September 19, 2014 (GMT -0500)
new haven | Change Station
CLOSE
Current Station
Personal Weather Station
Location: New Haven, MO
Elevation: 659 ft
Nearby Weather Stations

Elev 659 ft 38.60 °N, 91.21 °W | Updated 46 seconds ago

Clear
Clear
64.6 °F
Feels Like 64.6 °F
N
2.0
Wind Variable Wind from SW
Gusts 7.0 mph

Today
High -- | Low -- °F
--% Chance of Precip.
Yesterday
High -- | Low -- °F
Precip. -- in
6:49 AM 7:06 PM
Waning Crescent, 15% visible
Pressure 30.00 in
Visibility 3.0 miles
Clouds Clear
Dew Point 61 °F
Humidity 89%
Rainfall 0.00 in
Snow Depth Not available.
UV 0 out of 12
Pollen 7.00 out of 12
Air Quality Not available.
Flu Activity Not available.
METAR KFYG 200335Z AUTO 00000KT 3SM BR CLR 15/14 A3000 RMK AO2

More Conditions Fewer Conditions

Pressure 30.00 in
Visibility 3.0 miles
Clouds Clear
Dew Point 61 °F
Humidity 89%
Rainfall 0.00 in
Snow Depth Not available.
UV 0 out of 12
Pollen 7.00 out of 12
Air Quality Not available.
Flu Activity Not available.
METAR KFYG 200335Z AUTO 00000KT 3SM BR CLR 15/14 A3000 RMK AO2

More Conditions Fewer Conditions

10-Day Weather Forecast

Almanac

Astronomy

Sep. 19, 2014 Rise Set
Actual Time 6:49 AM CDT 7:06 PM CDT
Civil Twilight 6:22 AM CDT 7:32 PM CDT
Nautical Twilight 5:51 AM CDT 8:03 PM CDT
Astronomical Twilight 5:20 AM CDT 8:35 PM CDT
Moon 2:37 AM CDT (9/19) 4:33 PM CDT (9/19)
Length of Visible Light 13h 09m
Length of Day
12h 16m
Tomorrow will be 2m 29s shorter.
Waning Crescent, 15% of the Moon is Illuminated
Sep 20
Waning Crescent
Sep 24
New
Oct 1
First Quarter
Oct 8
Full
Oct 15
Last Quarter

Today's Extremes

State Highs State Lows

Community

WunderPhotos

Upload Photos

1,754,777 photos uploaded!

WunderBlogs® & News

Nearby

Snow Depth

Station Depth Elevation
No new snow has been reported.

Earthquake Activity

City Distance Mag. Time & Date
No recent earthquake activity has been reported nearby.
Minimum magnitude displayed is 2.5.

Coastal Water Temperatures

Place Temperature
No Stations Reporting

Nearby Weather Stations